createdAt,value
2023-02-14T00:00:13.367Z,0.00
2023-02-14T00:01:13.323Z,0.00
2023-02-14T00:02:13.316Z,0.00
2023-02-14T00:03:13.320Z,0.00
2023-02-14T00:04:13.364Z,0.00
2023-02-14T00:05:13.264Z,0.00
2023-02-14T00:06:13.291Z,0.00
2023-02-14T00:07:13.255Z,0.00
2023-02-14T00:08:13.236Z,0.00
2023-02-14T00:09:13.243Z,0.00
2023-02-14T00:10:13.228Z,0.00
2023-02-14T00:11:13.228Z,0.00
2023-02-14T00:12:13.186Z,0.00
2023-02-14T00:13:13.195Z,0.00
2023-02-14T00:14:13.155Z,0.00
2023-02-14T00:15:13.147Z,0.00
2023-02-14T00:16:13.220Z,0.00
2023-02-14T00:17:13.115Z,0.00
2023-02-14T00:18:13.120Z,0.00
2023-02-14T00:19:13.095Z,0.00
2023-02-14T00:20:13.085Z,0.00
2023-02-14T00:21:13.094Z,0.00
2023-02-14T00:22:13.089Z,0.00
2023-02-14T00:23:13.050Z,0.00
2023-02-14T00:24:13.029Z,0.00
2023-02-14T00:25:13.033Z,0.00
2023-02-14T00:26:13.005Z,0.00
2023-02-14T00:27:13.010Z,0.00
2023-02-14T00:28:12.993Z,0.00
2023-02-14T00:29:12.979Z,0.00
2023-02-14T00:30:13.065Z,0.00
2023-02-14T00:31:12.988Z,0.00
2023-02-14T00:32:12.977Z,0.00
2023-02-14T00:33:12.938Z,0.00
2023-02-14T00:34:12.957Z,0.00
2023-02-14T00:35:12.920Z,0.00
2023-02-14T00:36:12.902Z,0.00
2023-02-14T00:37:13.560Z,0.00
2023-02-14T00:38:12.846Z,0.00
2023-02-14T00:39:12.835Z,0.00
2023-02-14T00:40:12.838Z,0.00
2023-02-14T00:41:12.815Z,0.00
2023-02-14T00:42:12.810Z,0.00
2023-02-14T00:43:12.786Z,0.00
2023-02-14T00:44:12.764Z,0.00
2023-02-14T00:45:12.759Z,0.00
2023-02-14T00:46:12.771Z,0.00
2023-02-14T00:47:12.735Z,0.00
2023-02-14T00:48:12.746Z,0.00
2023-02-14T00:49:12.709Z,0.00
2023-02-14T00:50:12.696Z,0.00
2023-02-14T00:51:12.688Z,0.00
2023-02-14T00:52:12.665Z,0.00
2023-02-14T00:53:12.685Z,0.00
2023-02-14T00:54:12.649Z,0.00
2023-02-14T00:55:12.624Z,0.00
2023-02-14T00:56:12.614Z,0.00
2023-02-14T00:57:12.610Z,0.00
2023-02-14T00:58:12.633Z,0.00
2023-02-14T00:59:12.624Z,0.00
2023-02-14T01:00:12.591Z,0.00
2023-02-14T01:01:12.693Z,0.00
2023-02-14T01:02:12.619Z,0.00
2023-02-14T01:03:12.535Z,0.00
2023-02-14T01:04:12.537Z,0.00
2023-02-14T01:05:12.513Z,0.00
2023-02-14T01:06:12.497Z,0.00
2023-02-14T01:07:12.512Z,0.00
2023-02-14T01:08:12.481Z,0.00
2023-02-14T01:09:12.446Z,0.00
2023-02-14T01:10:12.454Z,0.00
2023-02-14T01:11:12.423Z,0.00
2023-02-14T01:12:12.414Z,0.00
2023-02-14T01:13:12.396Z,0.00
2023-02-14T01:14:12.393Z,0.00
2023-02-14T01:15:12.382Z,0.00
2023-02-14T01:16:12.416Z,0.00
2023-02-14T01:17:12.343Z,0.00
2023-02-14T01:18:12.334Z,0.00
2023-02-14T01:19:12.336Z,0.00
2023-02-14T01:20:12.315Z,0.00
2023-02-14T01:21:12.294Z,0.00
2023-02-14T01:22:12.295Z,0.00
2023-02-14T01:23:12.264Z,0.00
2023-02-14T01:24:12.255Z,0.00
2023-02-14T01:25:12.238Z,0.00
2023-02-14T01:26:12.239Z,0.00
2023-02-14T01:27:12.225Z,0.00
2023-02-14T01:28:12.205Z,0.00
2023-02-14T01:29:12.194Z,0.00
2023-02-14T01:30:12.260Z,0.00
2023-02-14T01:31:12.322Z,0.00
2023-02-14T01:32:12.221Z,0.00
2023-02-14T01:33:12.143Z,0.00
2023-02-14T01:34:12.156Z,0.00
2023-02-14T01:35:12.136Z,0.00
2023-02-14T01:36:26.793Z,0.00
2023-02-14T01:37:12.110Z,0.00
2023-02-14T01:38:12.078Z,0.00
2023-02-14T01:39:12.063Z,0.00
2023-02-14T01:40:12.089Z,0.00
2023-02-14T01:41:12.036Z,0.00
2023-02-14T01:42:12.028Z,0.00
2023-02-14T01:43:12.019Z,0.00
2023-02-14T01:44:12.008Z,0.00
2023-02-14T01:45:11.997Z,0.00
2023-02-14T01:46:12.056Z,0.00
2023-02-14T01:47:11.958Z,0.00
2023-02-14T01:48:11.999Z,0.00
2023-02-14T01:49:11.966Z,0.00
2023-02-14T01:50:11.945Z,0.00
2023-02-14T01:51:11.936Z,0.00
2023-02-14T01:52:11.918Z,0.00
2023-02-14T01:53:11.899Z,0.00
2023-02-14T01:54:11.884Z,0.00
2023-02-14T01:55:11.884Z,0.00
2023-02-14T01:56:11.858Z,0.00
2023-02-14T01:57:11.829Z,0.00
2023-02-14T01:58:11.847Z,0.00
2023-02-14T01:59:11.820Z,0.00
2023-02-14T02:00:11.836Z,0.00
2023-02-14T02:01:11.823Z,0.00
2023-02-14T02:02:11.856Z,0.00
2023-02-14T02:03:11.790Z,0.00
2023-02-14T02:04:11.765Z,0.00
2023-02-14T02:05:11.750Z,0.00
2023-02-14T02:06:11.754Z,0.00
2023-02-14T02:07:11.735Z,0.00
2023-02-14T02:08:11.718Z,0.00
2023-02-14T02:09:11.680Z,0.00
2023-02-14T02:10:11.671Z,0.00
2023-02-14T02:11:11.670Z,0.00
2023-02-14T02:12:11.651Z,0.00
2023-02-14T02:13:11.631Z,0.00
2023-02-14T02:14:11.621Z,0.00
2023-02-14T02:15:11.635Z,0.00
2023-02-14T02:16:11.637Z,0.00
2023-02-14T02:17:18.622Z,0.00
2023-02-14T02:18:11.611Z,0.00
2023-02-14T02:19:11.553Z,0.00
2023-02-14T02:20:11.576Z,0.00
2023-02-14T02:21:11.544Z,0.00
2023-02-14T02:22:11.525Z,0.00
2023-02-14T02:23:11.502Z,0.00
2023-02-14T02:24:11.504Z,0.00
2023-02-14T02:25:11.485Z,0.00
2023-02-14T02:26:11.470Z,0.00
2023-02-14T02:27:11.463Z,0.00
2023-02-14T02:28:11.455Z,0.00
2023-02-14T02:29:11.421Z,0.00
2023-02-14T02:30:11.574Z,0.00
2023-02-14T02:31:11.485Z,0.00
2023-02-14T02:32:11.483Z,0.00
2023-02-14T02:33:11.385Z,0.00
2023-02-14T02:34:11.386Z,0.00
2023-02-14T02:35:11.350Z,0.00
2023-02-14T02:36:11.346Z,0.00
2023-02-14T02:37:11.344Z,0.00
2023-02-14T02:38:11.322Z,0.00
2023-02-14T02:39:11.314Z,0.00
2023-02-14T02:40:11.305Z,0.00
2023-02-14T02:41:11.287Z,0.00
2023-02-14T02:42:11.277Z,0.00
2023-02-14T02:43:11.265Z,0.00
2023-02-14T02:44:11.273Z,0.00
2023-02-14T02:45:11.222Z,0.00
2023-02-14T02:46:11.258Z,0.00
2023-02-14T02:47:11.202Z,0.00
2023-02-14T02:48:11.194Z,0.00
2023-02-14T02:49:11.186Z,0.00
2023-02-14T02:50:11.185Z,0.00
2023-02-14T02:51:11.160Z,0.00
2023-02-14T02:52:11.146Z,0.00
2023-02-14T02:53:11.123Z,0.00
2023-02-14T02:54:11.126Z,0.00
2023-02-14T02:55:11.102Z,0.00
2023-02-14T02:56:11.094Z,0.00
2023-02-14T02:57:11.086Z,0.00
2023-02-14T02:58:11.062Z,0.00
2023-02-14T02:59:11.041Z,0.00
2023-02-14T03:00:11.054Z,0.00
2023-02-14T03:01:11.071Z,0.00
2023-02-14T03:02:11.066Z,0.00
2023-02-14T03:03:10.992Z,0.00
2023-02-14T03:04:11.005Z,0.00
2023-02-14T03:05:11.051Z,0.00
2023-02-14T03:06:10.976Z,0.00
2023-02-14T03:07:10.943Z,0.00
2023-02-14T03:08:10.946Z,0.00
2023-02-14T03:09:10.925Z,0.00
2023-02-14T03:10:10.940Z,0.00
2023-02-14T03:11:10.901Z,0.00
2023-02-14T03:12:10.919Z,0.00
2023-02-14T03:13:10.872Z,0.00
2023-02-14T03:14:10.852Z,0.00
2023-02-14T03:15:10.854Z,0.00
2023-02-14T03:16:10.927Z,0.00
2023-02-14T03:17:10.814Z,0.00
2023-02-14T03:18:10.840Z,0.00
2023-02-14T03:19:10.785Z,0.00
2023-02-14T03:20:10.807Z,0.00
2023-02-14T03:21:10.776Z,0.00
2023-02-14T03:22:10.776Z,0.00
2023-02-14T03:23:10.742Z,0.00
2023-02-14T03:24:10.725Z,0.00
2023-02-14T03:25:10.759Z,0.00
2023-02-14T03:26:10.707Z,0.00
2023-02-14T03:27:10.707Z,0.00
2023-02-14T03:28:10.696Z,0.00
2023-02-14T03:29:10.662Z,0.00
2023-02-14T03:30:10.741Z,0.00
2023-02-14T03:31:10.681Z,0.00
2023-02-14T03:32:10.822Z,0.00
2023-02-14T03:33:10.622Z,0.00
2023-02-14T03:34:10.609Z,0.00
2023-02-14T03:35:10.610Z,0.00
2023-02-14T03:36:10.588Z,0.00
2023-02-14T03:37:10.589Z,0.00
2023-02-14T03:38:10.567Z,0.00
2023-02-14T03:39:10.560Z,0.00
2023-02-14T03:40:10.528Z,0.00
2023-02-14T03:41:10.513Z,0.00
2023-02-14T03:42:10.516Z,0.00
2023-02-14T03:43:10.517Z,0.00
2023-02-14T03:44:10.484Z,0.00
2023-02-14T03:45:10.535Z,0.00
2023-02-14T03:46:10.524Z,0.00
2023-02-14T03:47:10.449Z,0.00
2023-02-14T03:48:10.436Z,0.00
2023-02-14T03:49:10.426Z,0.00
2023-02-14T03:50:10.404Z,0.00
2023-02-14T03:51:10.400Z,0.00
2023-02-14T03:52:10.363Z,0.00
2023-02-14T03:53:10.366Z,0.00
2023-02-14T03:54:10.356Z,0.00
2023-02-14T03:55:10.334Z,0.00
2023-02-14T03:56:10.337Z,0.00
2023-02-14T03:57:10.346Z,0.00
2023-02-14T03:58:10.300Z,0.00
2023-02-14T03:59:10.280Z,0.00
2023-02-14T04:00:10.278Z,0.00
2023-02-14T04:01:13.224Z,0.00
2023-02-14T04:02:10.289Z,0.00
2023-02-14T04:03:10.297Z,0.00
2023-02-14T04:04:10.222Z,0.00
2023-02-14T04:05:10.203Z,0.00
2023-02-14T04:06:10.183Z,0.00
2023-02-14T04:07:10.242Z,0.00
2023-02-14T04:08:10.184Z,0.00
2023-02-14T04:09:10.159Z,0.00
2023-02-14T04:10:10.155Z,0.00
2023-02-14T04:11:10.162Z,0.00
2023-02-14T04:12:10.293Z,0.00
2023-02-14T04:13:10.102Z,0.00
2023-02-14T04:14:10.102Z,0.00
2023-02-14T04:15:10.085Z,0.00
2023-02-14T04:16:10.127Z,0.00
2023-02-14T04:17:10.064Z,0.00
2023-02-14T04:18:10.086Z,0.00
2023-02-14T04:19:10.024Z,0.00
2023-02-14T04:20:10.002Z,0.00
2023-02-14T04:21:10.001Z,0.00
2023-02-14T04:22:10.001Z,0.00
2023-02-14T04:23:09.984Z,0.00
2023-02-14T04:24:09.951Z,0.00
2023-02-14T04:25:09.964Z,0.00
2023-02-14T04:26:09.936Z,0.00
2023-02-14T04:27:10.305Z,0.00
2023-02-14T04:28:09.925Z,0.00
2023-02-14T04:29:09.906Z,0.00
2023-02-14T04:30:09.911Z,0.00
2023-02-14T04:31:09.979Z,0.00
2023-02-14T04:32:10.045Z,0.00
2023-02-14T04:33:09.900Z,0.00
2023-02-14T04:34:09.824Z,0.00
2023-02-14T04:35:09.833Z,0.00
2023-02-14T04:36:09.788Z,0.00
2023-02-14T04:37:09.813Z,0.00
2023-02-14T04:38:09.776Z,0.00
2023-02-14T04:39:09.770Z,0.00
2023-02-14T04:40:09.758Z,0.00
2023-02-14T04:41:09.740Z,0.00
2023-02-14T04:42:09.732Z,0.00
2023-02-14T04:43:09.734Z,0.00
2023-02-14T04:44:09.712Z,0.00
2023-02-14T04:45:09.700Z,0.00
2023-02-14T04:46:09.710Z,0.00
2023-02-14T04:47:09.689Z,0.00
2023-02-14T04:48:09.651Z,0.00
2023-02-14T04:49:09.661Z,0.00
2023-02-14T04:50:09.617Z,0.00
2023-02-14T04:51:09.615Z,0.00
2023-02-14T04:52:09.605Z,0.00
2023-02-14T04:53:09.582Z,0.00
2023-02-14T04:54:09.599Z,0.00
2023-02-14T04:55:09.576Z,0.00
2023-02-14T04:56:09.563Z,0.00
2023-02-14T04:57:09.539Z,0.00
2023-02-14T04:58:09.513Z,0.00
2023-02-14T04:59:09.533Z,0.00
2023-02-14T05:00:09.502Z,0.00
2023-02-14T05:01:09.500Z,0.00
2023-02-14T05:02:09.499Z,0.00
2023-02-14T05:03:09.460Z,0.00
2023-02-14T05:04:09.452Z,0.00
2023-02-14T05:05:09.558Z,0.00
2023-02-14T05:06:09.422Z,0.00
2023-02-14T05:07:09.408Z,0.00
2023-02-14T05:08:09.398Z,0.00
2023-02-14T05:09:09.381Z,0.00
2023-02-14T05:10:09.371Z,0.00
2023-02-14T05:11:09.481Z,0.00
2023-02-14T05:12:09.347Z,0.00
2023-02-14T05:13:09.318Z,0.00
2023-02-14T05:14:09.307Z,0.00
2023-02-14T05:15:09.325Z,0.00
2023-02-14T05:16:09.330Z,0.00
2023-02-14T05:17:09.298Z,0.00
2023-02-14T05:18:09.260Z,0.00
2023-02-14T05:19:09.270Z,0.00
2023-02-14T05:20:09.243Z,0.00
2023-02-14T05:21:09.244Z,0.00
2023-02-14T05:22:09.292Z,0.00
2023-02-14T05:23:09.197Z,0.00
2023-02-14T05:24:09.175Z,0.00
2023-02-14T05:25:09.167Z,0.00
2023-02-14T05:26:09.266Z,0.00
2023-02-14T05:27:09.290Z,0.00
2023-02-14T05:28:09.136Z,0.00
2023-02-14T05:29:09.169Z,0.00
2023-02-14T05:30:09.152Z,0.00
2023-02-14T05:31:09.274Z,0.00
2023-02-14T05:32:09.144Z,0.00
2023-02-14T05:33:09.140Z,0.00
2023-02-14T05:34:09.096Z,0.00
2023-02-14T05:35:09.134Z,0.00
2023-02-14T05:36:09.026Z,0.00
2023-02-14T05:37:09.016Z,0.00
2023-02-14T05:38:09.006Z,0.00
2023-02-14T05:39:09.009Z,0.00
2023-02-14T05:40:09.051Z,0.00
2023-02-14T05:41:08.967Z,0.00
2023-02-14T05:42:14.116Z,0.00
2023-02-14T05:43:08.951Z,0.00
2023-02-14T05:44:08.949Z,0.00
2023-02-14T05:45:08.907Z,0.00
2023-02-14T05:46:08.936Z,0.00
2023-02-14T05:47:08.936Z,0.00
2023-02-14T05:48:08.905Z,0.00
2023-02-14T05:49:08.877Z,0.00
2023-02-14T05:50:08.860Z,0.00
2023-02-14T05:51:08.849Z,0.00
2023-02-14T05:52:08.861Z,0.00
2023-02-14T05:53:08.822Z,0.00
2023-02-14T05:54:10.842Z,0.00
2023-02-14T05:55:08.803Z,0.00
2023-02-14T05:56:08.776Z,0.00
2023-02-14T05:57:08.765Z,0.00
2023-02-14T05:58:08.775Z,0.00
2023-02-14T05:59:08.744Z,0.00
2023-02-14T06:00:08.923Z,0.00
2023-02-14T06:01:08.751Z,0.00
2023-02-14T06:02:08.861Z,0.00
2023-02-14T06:03:08.778Z,0.00
2023-02-14T06:04:08.749Z,0.00
2023-02-14T06:05:08.760Z,0.00
2023-02-14T06:06:08.671Z,0.00
2023-02-14T06:07:08.648Z,0.00
2023-02-14T06:08:08.739Z,0.00
2023-02-14T06:09:08.719Z,0.00
2023-02-14T06:10:08.611Z,0.00
2023-02-14T06:11:08.638Z,0.00
2023-02-14T06:12:08.600Z,0.00
2023-02-14T06:13:08.618Z,0.00
2023-02-14T06:14:08.671Z,0.00
2023-02-14T06:15:08.621Z,0.00
2023-02-14T06:16:08.641Z,0.00
2023-02-14T06:17:08.620Z,0.00
2023-02-14T06:18:08.529Z,0.00
2023-02-14T06:19:08.545Z,0.00
2023-02-14T06:20:08.511Z,0.00
2023-02-14T06:21:08.513Z,0.00
2023-02-14T06:22:08.451Z,0.00
2023-02-14T06:23:08.450Z,0.00
2023-02-14T06:24:08.445Z,0.00
2023-02-14T06:25:08.418Z,0.00
2023-02-14T06:26:08.407Z,0.00
2023-02-14T06:27:08.394Z,0.00
2023-02-14T06:28:08.397Z,5.62
2023-02-14T06:29:08.364Z,5.62
2023-02-14T06:30:08.412Z,5.62
2023-02-14T06:31:08.434Z,5.62
2023-02-14T06:32:08.392Z,5.62
2023-02-14T06:33:08.365Z,5.62
2023-02-14T06:34:08.294Z,5.62
2023-02-14T06:35:08.280Z,5.62
2023-02-14T06:36:08.289Z,5.62
2023-02-14T06:37:08.260Z,5.62
2023-02-14T06:38:08.256Z,5.62
2023-02-14T06:39:08.235Z,11.25
2023-02-14T06:40:08.212Z,11.25
2023-02-14T06:41:08.202Z,11.25
2023-02-14T06:42:08.196Z,11.25
2023-02-14T06:43:08.176Z,11.25
2023-02-14T06:44:08.172Z,11.25
2023-02-14T06:45:08.185Z,11.25
2023-02-14T06:46:08.169Z,11.25
2023-02-14T06:47:08.135Z,11.25
2023-02-14T06:48:08.127Z,16.88
2023-02-14T06:49:08.126Z,16.88
2023-02-14T06:50:08.105Z,16.88
2023-02-14T06:51:08.087Z,16.88
2023-02-14T06:52:08.076Z,16.88
2023-02-14T06:53:08.043Z,16.88
2023-02-14T06:54:08.105Z,16.88
2023-02-14T06:55:08.050Z,16.88
2023-02-14T06:56:08.028Z,22.50
2023-02-14T06:57:07.993Z,22.50
2023-02-14T06:58:07.984Z,22.50
2023-02-14T06:59:07.989Z,22.50
2023-02-14T07:00:08.025Z,22.50
2023-02-14T07:01:08.074Z,22.50
2023-02-14T07:02:08.000Z,22.50
2023-02-14T07:03:07.928Z,28.12
2023-02-14T07:04:07.925Z,28.12
2023-02-14T07:05:07.916Z,28.12
2023-02-14T07:06:07.884Z,28.12
2023-02-14T07:07:07.863Z,28.12
2023-02-14T07:08:07.853Z,28.12
2023-02-14T07:09:07.847Z,28.12
2023-02-14T07:10:07.859Z,33.75
2023-02-14T07:11:07.817Z,33.75
2023-02-14T07:12:07.824Z,33.75
2023-02-14T07:13:07.791Z,33.75
2023-02-14T07:14:07.840Z,33.75
2023-02-14T07:15:07.784Z,33.75
2023-02-14T07:16:07.823Z,33.75
2023-02-14T07:17:07.746Z,33.75
2023-02-14T07:18:07.724Z,33.75
2023-02-14T07:19:07.711Z,39.38
2023-02-14T07:20:07.733Z,39.38
2023-02-14T07:21:07.708Z,39.38
2023-02-14T07:22:07.718Z,39.38
2023-02-14T07:23:07.690Z,39.38
2023-02-14T07:24:07.662Z,39.38
2023-02-14T07:25:07.691Z,39.38
2023-02-14T07:26:07.630Z,45.00
2023-02-14T07:27:07.630Z,45.00
2023-02-14T07:28:07.604Z,45.00
2023-02-14T07:29:07.597Z,45.00
2023-02-14T07:30:07.808Z,45.00
2023-02-14T07:31:07.692Z,45.00
2023-02-14T07:32:07.701Z,45.00
2023-02-14T07:33:07.547Z,50.62
2023-02-14T07:34:07.545Z,50.62
2023-02-14T07:35:07.537Z,50.62
2023-02-14T07:36:07.510Z,50.62
2023-02-14T07:37:07.503Z,50.62
2023-02-14T07:38:07.485Z,50.62
2023-02-14T07:39:07.502Z,56.25
2023-02-14T07:40:14.170Z,56.25
2023-02-14T07:41:08.431Z,56.25
2023-02-14T07:42:07.422Z,56.25
2023-02-14T07:43:07.422Z,56.25
2023-02-14T07:44:07.398Z,56.25
2023-02-14T07:45:20.784Z,56.25
2023-02-14T07:46:08.434Z,61.88
2023-02-14T07:47:07.366Z,61.88
2023-02-14T07:48:07.358Z,61.88
2023-02-14T07:49:07.353Z,61.88
2023-02-14T07:50:07.322Z,61.88
2023-02-14T07:51:07.332Z,67.50
2023-02-14T07:52:07.300Z,67.50
2023-02-14T07:53:07.294Z,67.50
2023-02-14T07:54:07.280Z,67.50
2023-02-14T07:55:07.281Z,67.50
2023-02-14T07:56:07.308Z,73.12
2023-02-14T07:57:07.251Z,73.12
2023-02-14T07:58:07.226Z,73.12
2023-02-14T07:59:07.216Z,73.12
2023-02-14T08:00:07.211Z,78.75
2023-02-14T08:01:07.202Z,78.75
2023-02-14T08:02:07.185Z,78.75
2023-02-14T08:03:07.189Z,78.75
2023-02-14T08:04:07.147Z,78.75
2023-02-14T08:05:07.175Z,78.75
2023-02-14T08:06:07.133Z,78.75
2023-02-14T08:07:07.120Z,84.38
2023-02-14T08:08:07.161Z,84.38
2023-02-14T08:09:07.092Z,84.38
2023-02-14T08:10:07.091Z,90.00
2023-02-14T08:11:07.069Z,90.00
2023-02-14T08:12:07.048Z,90.00
2023-02-14T08:13:07.034Z,90.00
2023-02-14T08:14:07.000Z,90.00
2023-02-14T08:15:07.021Z,90.00
2023-02-14T08:16:07.072Z,90.00
2023-02-14T08:17:06.969Z,95.62
2023-02-14T08:18:14.085Z,95.62
2023-02-14T08:19:06.944Z,90.00
2023-02-14T08:20:06.978Z,90.00
2023-02-14T08:21:06.964Z,90.00
2023-02-14T08:22:06.920Z,90.00
2023-02-14T08:23:06.908Z,95.62
2023-02-14T08:24:06.902Z,95.62
2023-02-14T08:25:06.887Z,95.62
2023-02-14T08:26:06.877Z,95.62
2023-02-14T08:27:06.857Z,95.62
2023-02-14T08:28:06.870Z,95.62
2023-02-14T08:29:06.827Z,95.62
2023-02-14T08:30:06.831Z,95.62
2023-02-14T08:31:06.864Z,101.25
2023-02-14T08:32:06.895Z,101.25
2023-02-14T08:33:06.776Z,101.25
2023-02-14T08:34:06.746Z,101.25
2023-02-14T08:35:06.742Z,101.25
2023-02-14T08:36:06.743Z,106.88
2023-02-14T08:37:06.739Z,101.25
2023-02-14T08:38:06.723Z,101.25
2023-02-14T08:39:06.690Z,106.88
2023-02-14T08:40:06.687Z,106.88
2023-02-14T08:41:08.882Z,106.88
2023-02-14T08:42:06.649Z,106.88
2023-02-14T08:43:06.652Z,106.88
2023-02-14T08:44:06.622Z,106.88
2023-02-14T08:45:06.614Z,106.88
2023-02-14T08:46:06.607Z,106.88
2023-02-14T08:47:06.731Z,106.88
2023-02-14T08:48:06.568Z,106.88
2023-02-14T08:49:06.585Z,106.88
2023-02-14T08:50:06.556Z,106.88
2023-02-14T08:51:06.534Z,106.88
2023-02-14T08:52:06.542Z,112.50
2023-02-14T08:53:06.542Z,112.50
2023-02-14T08:54:06.514Z,112.50
2023-02-14T08:55:06.506Z,118.12
2023-02-14T08:56:06.511Z,118.12
2023-02-14T08:57:06.480Z,118.12
2023-02-14T08:58:06.584Z,123.75
2023-02-14T08:59:06.470Z,118.12
2023-02-14T09:00:06.473Z,118.12
2023-02-14T09:01:06.475Z,123.75
2023-02-14T09:02:06.405Z,123.75
2023-02-14T09:03:06.405Z,123.75
2023-02-14T09:04:06.424Z,123.75
2023-02-14T09:05:06.354Z,123.75
2023-02-14T09:06:06.342Z,129.38
2023-02-14T09:07:06.342Z,129.38
2023-02-14T09:08:06.329Z,129.38
2023-02-14T09:09:06.327Z,135.00
2023-02-14T09:10:06.296Z,135.00
2023-02-14T09:11:06.289Z,135.00
2023-02-14T09:12:06.300Z,140.62
2023-02-14T09:13:06.277Z,140.62
2023-02-14T09:14:06.244Z,135.00
2023-02-14T09:15:06.223Z,140.62
2023-02-14T09:16:06.259Z,140.62
2023-02-14T09:17:06.194Z,140.62
2023-02-14T09:18:06.213Z,146.25
2023-02-14T09:19:06.176Z,140.62
2023-02-14T09:20:06.176Z,140.62
2023-02-14T09:21:06.168Z,140.62
2023-02-14T09:22:06.147Z,140.62
2023-02-14T09:23:06.140Z,140.62
2023-02-14T09:24:06.118Z,146.25
2023-02-14T09:25:06.119Z,146.25
2023-02-14T09:26:06.091Z,146.25
2023-02-14T09:27:06.121Z,146.25
2023-02-14T09:28:06.723Z,146.25
2023-02-14T09:29:06.057Z,151.88
2023-02-14T09:30:06.037Z,151.88
2023-02-14T09:31:06.019Z,157.50
2023-02-14T09:32:06.126Z,157.50
2023-02-14T09:33:05.994Z,157.50
2023-02-14T09:34:05.988Z,157.50
2023-02-14T09:35:05.978Z,157.50
2023-02-14T09:36:05.958Z,157.50
2023-02-14T09:37:06.509Z,157.50
2023-02-14T09:38:05.971Z,163.12
2023-02-14T09:39:05.913Z,163.12
2023-02-14T09:40:05.899Z,163.12
2023-02-14T09:41:05.916Z,163.12
2023-02-14T09:42:05.888Z,168.75
2023-02-14T09:43:05.882Z,168.75
2023-02-14T09:44:05.867Z,168.75
2023-02-14T09:45:05.850Z,168.75
2023-02-14T09:46:05.849Z,168.75
2023-02-14T09:47:05.815Z,168.75
2023-02-14T09:48:05.808Z,168.75
2023-02-14T09:49:05.874Z,174.38
2023-02-14T09:50:05.819Z,174.38
2023-02-14T09:51:05.779Z,174.38
2023-02-14T09:52:05.757Z,174.38
2023-02-14T09:53:05.757Z,180.00
2023-02-14T09:54:05.741Z,180.00
2023-02-14T09:55:05.714Z,174.38
2023-02-14T09:56:05.712Z,168.75
2023-02-14T09:57:05.701Z,168.75
2023-02-14T09:58:05.676Z,168.75
2023-02-14T09:59:05.691Z,174.38
2023-02-14T10:00:05.645Z,180.00
2023-02-14T10:01:05.685Z,180.00
2023-02-14T10:02:05.675Z,180.00
2023-02-14T10:03:05.618Z,174.38
2023-02-14T10:04:05.596Z,174.38
2023-02-14T10:05:05.586Z,174.38
2023-02-14T10:06:05.603Z,180.00
2023-02-14T10:07:05.579Z,180.00
2023-02-14T10:08:05.563Z,185.62
2023-02-14T10:09:05.549Z,185.62
2023-02-14T10:10:05.518Z,180.00
2023-02-14T10:11:05.539Z,180.00
2023-02-14T10:12:05.508Z,180.00
2023-02-14T10:13:05.532Z,180.00
2023-02-14T10:14:05.486Z,180.00
2023-02-14T10:15:05.471Z,180.00
2023-02-14T10:16:05.522Z,180.00
2023-02-14T10:17:05.425Z,185.62
2023-02-14T10:18:05.441Z,185.62
2023-02-14T10:19:05.443Z,185.62
2023-02-14T10:20:05.387Z,185.62
2023-02-14T10:21:05.388Z,191.25
2023-02-14T10:22:20.120Z,191.25
2023-02-14T10:23:05.366Z,191.25
2023-02-14T10:24:05.349Z,191.25
2023-02-14T10:25:05.396Z,191.25
2023-02-14T10:26:05.321Z,185.62
2023-02-14T10:27:26.310Z,185.62
2023-02-14T10:28:05.310Z,191.25
2023-02-14T10:29:05.276Z,185.62
2023-02-14T10:30:05.468Z,185.62
2023-02-14T10:31:05.294Z,191.25
2023-02-14T10:32:05.290Z,196.88
2023-02-14T10:33:05.249Z,202.50
2023-02-14T10:34:05.226Z,202.50
2023-02-14T10:35:05.210Z,202.50
2023-02-14T10:36:05.209Z,202.50
2023-02-14T10:37:05.170Z,196.88
2023-02-14T10:38:05.183Z,196.88
2023-02-14T10:39:05.158Z,196.88
2023-02-14T10:40:05.161Z,196.88
2023-02-14T10:41:05.141Z,196.88
2023-02-14T10:42:05.127Z,196.88
2023-02-14T10:43:05.105Z,196.88
2023-02-14T10:44:05.123Z,185.62
2023-02-14T10:45:05.079Z,191.25
2023-02-14T10:46:05.137Z,191.25
2023-02-14T10:47:05.052Z,202.50
2023-02-14T10:48:05.055Z,196.88
2023-02-14T10:49:05.098Z,196.88
2023-02-14T10:50:05.058Z,196.88
2023-02-14T10:51:05.007Z,196.88
2023-02-14T10:52:04.984Z,196.88
2023-02-14T10:53:04.983Z,202.50
2023-02-14T10:54:04.956Z,202.50
2023-02-14T10:55:04.952Z,208.12
2023-02-14T10:56:04.954Z,202.50
2023-02-14T10:57:04.924Z,196.88
2023-02-14T10:58:04.908Z,185.62
2023-02-14T10:59:04.962Z,180.00
2023-02-14T11:00:04.888Z,180.00
2023-02-14T11:01:04.916Z,191.25
2023-02-14T11:02:04.890Z,196.88
2023-02-14T11:03:04.900Z,202.50
2023-02-14T11:04:04.840Z,196.88
2023-02-14T11:05:04.830Z,196.88
2023-02-14T11:06:04.833Z,191.25
2023-02-14T11:07:04.783Z,191.25
2023-02-14T11:08:04.810Z,208.12
2023-02-14T11:09:04.772Z,208.12
2023-02-14T11:10:04.780Z,208.12
2023-02-14T11:11:04.743Z,208.12
2023-02-14T11:12:04.755Z,202.50
2023-02-14T11:13:04.753Z,202.50
2023-02-14T11:14:04.716Z,196.88
2023-02-14T11:15:04.758Z,202.50
2023-02-14T11:16:04.700Z,202.50
2023-02-14T11:17:04.697Z,202.50
2023-02-14T11:18:04.665Z,208.12
2023-02-14T11:19:04.641Z,208.12
2023-02-14T11:20:04.620Z,202.50
2023-02-14T11:21:04.614Z,213.75
2023-02-14T11:22:04.656Z,219.38
2023-02-14T11:23:04.612Z,225.00
2023-02-14T11:24:04.572Z,225.00
2023-02-14T11:25:04.864Z,225.00
2023-02-14T11:26:04.541Z,219.38
2023-02-14T11:27:04.541Z,219.38
2023-02-14T11:28:04.522Z,219.38
2023-02-14T11:29:04.524Z,219.38
2023-02-14T11:30:04.536Z,219.38
2023-02-14T11:31:04.963Z,219.38
2023-02-14T11:32:04.575Z,219.38
2023-02-14T11:33:04.479Z,219.38
2023-02-14T11:34:05.008Z,219.38
2023-02-14T11:35:04.458Z,213.75
2023-02-14T11:36:04.412Z,219.38
2023-02-14T11:37:04.390Z,208.12
2023-02-14T11:38:04.410Z,208.12
2023-02-14T11:39:04.387Z,213.75
2023-02-14T11:40:04.437Z,219.38
2023-02-14T11:41:04.356Z,219.38
2023-02-14T11:42:04.364Z,208.12
2023-02-14T11:43:14.046Z,208.12
2023-02-14T11:44:05.313Z,208.12
2023-02-14T11:45:04.306Z,208.12
2023-02-14T11:46:04.338Z,213.75
2023-02-14T11:47:05.777Z,213.75
2023-02-14T11:48:04.255Z,208.12
2023-02-14T11:49:04.247Z,208.12
2023-02-14T11:50:04.232Z,213.75
2023-02-14T11:51:04.251Z,219.38
2023-02-14T11:52:04.217Z,219.38
2023-02-14T11:53:04.201Z,219.38
2023-02-14T11:54:04.222Z,219.38
2023-02-14T11:55:04.173Z,213.75
2023-02-14T11:56:04.156Z,213.75
2023-02-14T11:57:04.155Z,219.38
2023-02-14T11:58:04.147Z,219.38
2023-02-14T11:59:04.126Z,225.00
2023-02-14T12:00:04.103Z,225.00
2023-02-14T12:01:04.096Z,225.00
2023-02-14T12:02:04.118Z,230.62
2023-02-14T12:03:04.069Z,230.62
2023-02-14T12:04:04.088Z,230.62
2023-02-14T12:05:04.039Z,230.62
2023-02-14T12:06:04.038Z,225.00
2023-02-14T12:07:04.029Z,225.00
2023-02-14T12:08:04.019Z,225.00
2023-02-14T12:09:03.997Z,219.38
2023-02-14T12:10:03.981Z,219.38
2023-02-14T12:11:04.068Z,219.38
2023-02-14T12:12:03.950Z,213.75
2023-02-14T12:13:03.961Z,219.38
2023-02-14T12:14:03.948Z,219.38
2023-02-14T12:15:03.906Z,219.38
2023-02-14T12:16:03.983Z,219.38
2023-02-14T12:17:03.886Z,219.38
2023-02-14T12:18:03.888Z,213.75
2023-02-14T12:19:03.875Z,219.38
2023-02-14T12:20:03.868Z,213.75
2023-02-14T12:21:03.846Z,213.75
2023-02-14T12:22:03.842Z,213.75
2023-02-14T12:23:03.821Z,213.75
2023-02-14T12:24:03.807Z,213.75
2023-02-14T12:25:03.805Z,213.75
2023-02-14T12:26:03.786Z,219.38
2023-02-14T12:27:03.807Z,219.38
2023-02-14T12:28:03.746Z,219.38
2023-02-14T12:29:03.740Z,219.38
2023-02-14T12:30:03.760Z,219.38
2023-02-14T12:31:04.135Z,219.38
2023-02-14T12:32:03.814Z,213.75
2023-02-14T12:33:03.674Z,213.75
2023-02-14T12:34:03.743Z,219.38
2023-02-14T12:35:03.700Z,219.38
2023-02-14T12:36:03.653Z,213.75
2023-02-14T12:37:03.745Z,213.75
2023-02-14T12:38:04.979Z,213.75
2023-02-14T12:39:03.605Z,219.38
2023-02-14T12:40:03.589Z,219.38
2023-02-14T12:41:03.580Z,225.00
2023-02-14T12:42:03.596Z,225.00
2023-02-14T12:43:03.542Z,230.62
2023-02-14T12:44:03.521Z,236.25
2023-02-14T12:45:03.525Z,236.25
2023-02-14T12:46:03.829Z,236.25
2023-02-14T12:47:03.486Z,230.62
2023-02-14T12:48:03.473Z,230.62
2023-02-14T12:49:03.476Z,225.00
2023-02-14T12:50:03.463Z,230.62
2023-02-14T12:51:03.619Z,225.00
2023-02-14T12:52:03.434Z,230.62
2023-02-14T12:53:03.426Z,230.62
2023-02-14T12:54:03.408Z,230.62
2023-02-14T12:55:03.422Z,230.62
2023-02-14T12:56:03.375Z,225.00